Time;durP1;ratioP1;P1;durP2;ratioP2;P2;SDS_P1;SDS_P2;PMS_P1;PMS_P2;Temp;Humidity;BMP_temperature;BMP_pressure;BME280_temperature;BME280_humidity;BME280_pressure;Samples;Min_cycle;Max_cycle;Signal;HPM_P1;HPM_P2
2022/12/11 00:00:07;;;;;;;23.83;12.27;;;;;;;-142.25;100.00;58004.16;5033534;28;20045;-60
2022/12/11 00:02:33;;;;;;;20.73;11.97;;;;;;;-142.25;100.00;58004.16;5033178;28;20047;-62
2022/12/11 00:04:58;;;;;;;24.27;10.73;;;;;;;-142.25;100.00;58004.16;5029983;28;20405;-63
2022/12/11 00:07:24;;;;;;;21.00;10.43;;;;;;;-142.25;100.00;58004.16;5026526;28;20099;-61
2022/12/11 00:09:51;;;;;;;26.23;11.90;;;;;;;-142.25;100.00;58004.16;5033307;28;20485;-61
2022/12/11 00:12:17;;;;;;;19.33;9.73;;;;;;;-142.25;100.00;58004.16;5029988;28;20052;-60
2022/12/11 00:14:43;;;;;;;20.67;10.30;;;;;;;-142.25;100.00;58004.16;5032610;28;20044;-61
2022/12/11 00:17:08;;;;;;;22.00;11.33;;;;;;;-142.25;100.00;58004.16;5032993;28;20562;-59
2022/12/11 00:19:34;;;;;;;21.60;11.60;;;;;;;-142.25;100.00;58004.16;5025551;28;20061;-60
2022/12/11 00:22:00;;;;;;;18.87;10.20;;;;;;;-142.25;100.00;58004.16;5025265;28;20939;-60
2022/12/11 00:24:25;;;;;;;14.83;9.47;;;;;;;-142.25;100.00;58004.16;5032980;28;20501;-61
2022/12/11 00:26:51;;;;;;;21.30;10.10;;;;;;;-142.25;100.00;58004.16;5033363;28;20109;-60
2022/12/11 00:29:17;;;;;;;21.70;11.27;;;;;;;-142.25;100.00;58004.16;5024832;28;20518;-63
2022/12/11 00:31:43;;;;;;;21.37;10.30;;;;;;;-142.25;100.00;58004.16;5031568;28;20512;-61
2022/12/11 00:34:10;;;;;;;23.63;10.30;;;;;;;-142.25;100.00;58004.16;5032378;28;20046;-62
2022/12/11 00:36:37;;;;;;;21.60;9.77;;;;;;;-142.25;100.00;58004.16;5032375;28;20069;-60
2022/12/11 00:39:04;;;;;;;19.07;10.10;;;;;;;-142.25;100.00;58004.16;5031793;28;20116;-61
2022/12/11 00:41:30;;;;;;;23.90;11.13;;;;;;;-142.25;100.00;58004.16;5027747;28;20966;-61
2022/12/11 00:43:56;;;;;;;23.67;11.07;;;;;;;-142.25;100.00;58004.16;5024355;28;20055;-61
2022/12/11 00:46:22;;;;;;;20.83;11.83;;;;;;;-142.25;100.00;58004.16;5031728;28;20505;-62
2022/12/11 00:48:48;;;;;;;22.17;10.87;;;;;;;-142.25;100.00;58004.16;5033197;28;20048;-59
2022/12/11 00:51:16;;;;;;;18.93;10.20;;;;;;;-142.25;100.00;58004.16;5032620;28;20045;-61
2022/12/11 00:53:42;;;;;;;23.80;11.73;;;;;;;-142.25;100.00;58004.16;5033769;28;20041;-61
2022/12/11 00:56:17;;;;;;;19.40;11.50;;;;;;;-142.25;100.00;58004.16;5032262;28;20072;-61
2022/12/11 00:58:44;;;;;;;23.45;12.35;;;;;;;-142.25;100.00;58004.16;5032825;28;20096;-61
2022/12/11 01:01:17;;;;;;;22.13;11.77;;;;;;;-142.25;100.00;58004.16;5032830;28;20141;-60
2022/12/11 01:03:44;;;;;;;21.23;11.00;;;;;;;-142.25;100.00;58004.16;5032967;28;20041;-60
2022/12/11 01:06:15;;;;;;;22.20;10.20;;;;;;;-142.25;100.00;58004.16;5032852;28;20045;-61
2022/12/11 01:08:41;;;;;;;17.20;9.77;;;;;;;-142.25;100.00;58004.16;5028214;28;20095;-61
2022/12/11 01:11:10;;;;;;;19.70;8.70;;;;;;;-142.25;100.00;58004.16;5029189;28;20470;-61
2022/12/11 01:13:36;;;;;;;18.17;9.67;;;;;;;-142.25;100.00;58004.16;5032362;28;20053;-61
2022/12/11 01:16:11;;;;;;;16.43;10.43;;;;;;;-142.25;100.00;58004.16;5031381;28;20526;-62
2022/12/11 01:18:37;;;;;;;20.85;11.25;;;;;;;-142.25;100.00;58004.16;5032148;28;20034;-60
2022/12/11 01:21:12;;;;;;;21.87;10.47;;;;;;;-142.25;100.00;58004.16;5028924;28;20452;-59
2022/12/11 01:23:39;;;;;;;17.23;9.05;;;;;;;-142.25;100.00;58004.16;5030133;28;20037;-59
2022/12/11 01:26:13;;;;;;;22.13;10.13;;;;;;;-142.25;100.00;58004.16;5030907;28;20413;-60
2022/12/11 01:28:39;;;;;;;17.67;9.17;;;;;;;-142.25;100.00;58004.16;5024546;28;20597;-61
2022/12/11 01:31:13;;;;;;;21.17;9.80;;;;;;;-142.25;100.00;58004.16;5026030;28;20140;-61
2022/12/11 01:33:39;;;;;;;16.38;8.43;;;;;;;-142.25;100.00;58004.16;5030327;28;20052;-60
2022/12/11 01:36:07;;;;;;;16.83;7.57;;;;;;;-142.25;100.00;58004.16;5030174;28;20056;-61
2022/12/11 01:38:33;;;;;;;16.57;8.43;;;;;;;-142.25;100.00;58004.16;5031821;28;20033;-61
2022/12/11 01:40:59;;;;;;;19.47;9.47;;;;;;;-142.25;100.00;58004.16;5028450;28;20048;-61
2022/12/11 01:43:24;;;;;;;15.57;7.73;;;;;;;-142.25;100.00;58004.16;5030417;28;20049;-60
2022/12/11 01:45:50;;;;;;;14.43;7.67;;;;;;;-142.25;100.00;58004.16;5028861;28;20531;-60
2022/12/11 01:48:26;;;;;;;20.07;9.00;;;;;;;-142.25;100.00;58004.16;5047064;28;20740;-61
2022/12/11 01:50:58;;;;;;;13.67;7.67;;;;;;;-142.25;100.00;58004.16;5027937;28;20064;-60
2022/12/11 01:53:30;;;;;;;14.90;7.30;;;;;;;-142.25;100.00;58004.16;5031048;28;20045;-60
2022/12/11 01:55:57;;;;;;;11.90;7.30;;;;;;;-142.25;100.00;58004.16;5035847;28;20041;-61
2022/12/11 01:58:28;;;;;;;14.50;7.37;;;;;;;-142.25;100.00;58004.16;5035144;28;20041;-62
2022/12/11 02:00:55;;;;;;;13.80;6.90;;;;;;;-142.25;100.00;58004.16;5034448;28;20499;-62
2022/12/11 02:03:22;;;;;;;16.80;8.23;;;;;;;-142.25;100.00;58004.16;5033279;28;20056;-62
2022/12/11 02:05:48;;;;;;;16.77;8.93;;;;;;;-142.25;100.00;58004.16;5034418;28;20045;-61
2022/12/11 02:08:14;;;;;;;22.40;9.70;;;;;;;-142.25;100.00;58004.16;5035031;28;20499;-61
2022/12/11 02:11:25;;;;;;;13.83;7.43;;;;;;;-142.25;100.00;58004.16;5033867;28;20041;-61
2022/12/11 02:13:59;;;;;;;15.67;7.77;;;;;;;-142.25;100.00;58004.16;5033676;28;20037;-59
2022/12/11 02:17:03;;;;;;;19.13;9.13;;;;;;;-142.25;100.00;58004.16;5036749;28;20083;-61
2022/12/11 02:19:59;;;;;;;12.93;7.93;;;;;;;-142.25;100.00;58004.16;5031994;28;20073;-61
2022/12/11 02:22:49;;;;;;;19.35;9.18;;;;;;;-142.25;100.00;58004.16;5033670;28;20503;-62
2022/12/11 02:25:31;;;;;;;14.33;6.70;;;;;;;-142.25;100.00;58004.16;5034363;28;20048;-60
2022/12/11 02:28:06;;;;;;;18.63;8.10;;;;;;;-142.25;100.00;58004.16;5033566;28;20095;-60
2022/12/11 02:30:36;;;;;;;15.02;7.95;;;;;;;-142.25;100.00;58004.16;5027683;28;20550;-60
2022/12/11 02:33:01;;;;;;;16.40;7.80;;;;;;;-142.25;100.00;58004.16;5028460;28;20544;-60
2022/12/11 02:35:32;;;;;;;11.20;7.90;;;;;;;-142.25;100.00;58004.16;5035653;28;20132;-61
2022/12/11 02:38:07;;;;;;;13.90;7.17;;;;;;;-142.25;100.00;58004.16;5035454;28;20294;-59
2022/12/11 02:40:35;;;;;;;;;;;;;;;-142.25;100.00;58004.16;5028190;28;20044;-61
2022/12/11 02:43:05;;;;;;;14.57;7.80;;;;;;;-142.25;100.00;58004.16;5032603;28;19978;-61
2022/12/11 02:45:32;;;;;;;11.93;6.50;;;;;;;-142.25;100.00;58004.16;5036491;28;20053;-60
2022/12/11 02:48:01;;;;;;;9.87;6.00;;;;;;;-142.25;100.00;58004.16;5034987;28;20056;-60
2022/12/11 02:50:28;;;;;;;10.07;6.30;;;;;;;-142.25;100.00;58004.16;5032945;28;20045;-62
2022/12/11 02:52:57;;;;;;;11.23;7.20;;;;;;;-142.25;100.00;58004.16;5030747;28;20076;-62
2022/12/11 02:55:26;;;;;;;7.97;4.53;;;;;;;-142.25;100.00;58004.16;5028949;28;20076;-61
2022/12/11 02:58:03;;;;;;;11.20;6.47;;;;;;;-142.25;100.00;58004.16;5032769;28;20482;-61
2022/12/11 03:00:28;;;;;;;10.03;5.60;;;;;;;-142.25;100.00;58004.16;5030495;28;20482;-60
2022/12/11 03:02:56;;;;;;;8.33;5.00;;;;;;;-142.25;100.00;58004.16;5035240;28;20100;-61
2022/12/11 03:05:22;;;;;;;10.17;5.50;;;;;;;-142.25;100.00;58004.16;5034798;28;20061;-58
2022/12/11 03:07:48;;;;;;;8.03;4.27;;;;;;;-142.25;100.00;58004.16;5042294;28;20044;-62
2022/12/11 03:10:17;;;;;;;9.27;6.07;;;;;;;-142.25;100.00;58004.16;5034201;28;20071;-60
2022/12/11 03:12:47;;;;;;;6.57;4.50;;;;;;;-142.25;100.00;58004.16;5033469;28;20042;-61
2022/12/11 03:15:15;;;;;;;11.17;4.97;;;;;;;-142.25;100.00;58004.16;5033373;28;20110;-61
2022/12/11 03:18:09;;;;;;;7.60;4.30;;;;;;;-142.25;100.00;58004.16;5033861;28;20476;-61
2022/12/11 03:20:55;;;;;;;9.43;4.70;;;;;;;-142.25;100.00;58004.16;5033170;28;20049;-59
2022/12/11 03:23:31;;;;;;;8.03;4.13;;;;;;;-142.25;100.00;58004.16;5034459;28;20159;-60
2022/12/11 03:26:05;;;;;;;4.75;3.95;;;;;;;-142.25;100.00;58004.16;5034378;28;20072;-58
2022/12/11 03:28:42;;;;;;;6.82;3.67;;;;;;;-142.25;100.00;58004.16;5035557;28;20471;-57
2022/12/11 03:31:13;;;;;;;7.77;5.13;;;;;;;-142.25;100.00;58004.16;5035362;28;20033;-58
2022/12/11 03:33:46;;;;;;;6.83;4.10;;;;;;;-142.25;100.00;58004.16;5034658;28;20041;-59
2022/12/11 03:36:19;;;;;;;6.63;3.90;;;;;;;-142.25;100.00;58004.16;5035528;28;20045;-58
2022/12/11 03:38:54;;;;;;;9.37;3.17;;;;;;;-142.25;100.00;58004.16;5029976;28;20037;-58
2022/12/11 03:41:23;;;;;;;6.07;3.38;;;;;;;-142.25;100.00;58004.16;5026941;28;20048;-58
2022/12/11 03:43:52;;;;;;;5.33;2.93;;;;;;;-142.25;100.00;58004.16;5034056;28;20063;-58
2022/12/11 03:46:21;;;;;;;4.37;2.60;;;;;;;-142.25;100.00;58004.16;5034661;28;20045;-59
2022/12/11 03:48:48;;;;;;;5.27;3.60;;;;;;;-142.25;100.00;58004.16;5034885;28;20523;-59
2022/12/11 03:51:15;;;;;;;4.43;2.97;;;;;;;-142.25;100.00;58004.16;5034955;28;20044;-59
2022/12/11 03:53:42;;;;;;;8.17;4.50;;;;;;;-142.25;100.00;58004.16;5042986;28;20133;-61
2022/12/11 03:56:10;;;;;;;6.73;3.30;;;;;;;-142.25;100.00;58004.16;5032030;28;20124;-58
2022/12/11 03:58:36;;;;;;;7.70;3.73;;;;;;;-142.25;100.00;58004.16;5034545;28;20052;-59
2022/12/11 04:01:07;;;;;;;8.30;4.67;;;;;;;-142.25;100.00;58004.16;5033767;28;20045;-60
2022/12/11 04:03:33;;;;;;;7.33;3.97;;;;;;;-142.25;100.00;58004.16;5031779;28;20132;-59
2022/12/11 04:05:58;;;;;;;6.77;4.37;;;;;;;-142.25;100.00;58004.16;5035308;28;20033;-59
2022/12/11 04:08:24;;;;;;;7.00;4.03;;;;;;;-142.25;100.00;58004.16;5034890;28;20127;-58
2022/12/11 04:13:35;;;;;;;10.15;4.95;;;;;;;-142.25;100.00;58004.16;5033269;28;20033;-58
2022/12/11 04:16:00;;;;;;;7.97;4.67;;;;;;;-142.25;100.00;58004.16;5033755;28;20038;-58
2022/12/11 04:24:15;;;;;;;11.00;6.10;;;;;;;-142.25;100.00;58004.16;5033142;28;20479;-61
2022/12/11 04:26:45;;;;;;;11.73;5.97;;;;;;;-142.25;100.00;58004.16;5031443;28;20075;-58
2022/12/11 04:29:11;;;;;;;10.43;5.93;;;;;;;-142.25;100.00;58004.16;5031968;28;20037;-59
2022/12/11 04:31:37;;;;;;;6.23;4.50;;;;;;;-142.25;100.00;58004.16;5030463;28;20045;-59
2022/12/11 04:34:03;;;;;;;10.33;5.00;;;;;;;-142.25;100.00;58004.16;5031099;28;20404;-58
2022/12/11 04:36:28;;;;;;;47.87;43.07;;;;;;;-142.25;100.00;58004.16;5030901;28;20403;-59
2022/12/11 04:38:54;;;;;;;13.07;8.87;;;;;;;-142.25;100.00;58004.16;5031991;28;20404;-59
2022/12/11 04:41:20;;;;;;;122.53;68.57;;;;;;;-142.25;100.00;58004.16;5030682;28;20045;-57
2022/12/11 04:43:45;;;;;;;5.27;3.47;;;;;;;-142.25;100.00;58004.16;5029301;28;20700;-59
2022/12/11 04:46:17;;;;;;;7.50;3.97;;;;;;;-142.25;100.00;58004.16;5024083;28;20133;-60
2022/12/11 04:48:44;;;;;;;9.20;4.80;;;;;;;-142.25;100.00;58004.16;5029724;28;20039;-59
2022/12/11 04:51:09;;;;;;;9.47;5.33;;;;;;;-142.25;100.00;58004.16;5026516;28;20040;-58
2022/12/11 04:53:35;;;;;;;8.63;4.83;;;;;;;-142.25;100.00;58004.16;5027779;28;20407;-59
2022/12/11 04:56:05;;;;;;;7.53;4.13;;;;;;;-142.25;100.00;58004.16;5033732;28;20622;-58
2022/12/11 04:58:31;;;;;;;8.03;4.37;;;;;;;-142.25;100.00;58004.16;5032474;28;20168;-58
2022/12/11 05:00:56;;;;;;;7.10;4.43;;;;;;;-142.25;100.00;58004.16;5031559;28;20976;-60
2022/12/11 05:03:22;;;;;;;7.63;4.10;;;;;;;-142.25;100.00;58004.16;5033237;28;20045;-59
2022/12/11 05:05:49;;;;;;;9.87;4.60;;;;;;;-142.25;100.00;58004.16;5033315;28;20037;-61
2022/12/11 05:08:19;;;;;;;10.10;5.67;;;;;;;-142.25;100.00;58004.16;5024654;28;20046;-60
2022/12/11 05:10:55;;;;;;;10.00;5.10;;;;;;;-142.25;100.00;58004.16;5028254;28;20049;-59
2022/12/11 05:13:20;;;;;;;9.30;5.27;;;;;;;-142.25;100.00;58004.16;5047966;28;20049;-59
2022/12/11 05:15:46;;;;;;;11.97;7.60;;;;;;;-142.25;100.00;58004.16;5036627;28;20036;-60
2022/12/11 05:18:12;;;;;;;8.63;4.60;;;;;;;-142.25;100.00;58004.16;5036637;28;20045;-59
2022/12/11 05:20:37;;;;;;;9.60;5.43;;;;;;;-142.25;100.00;58004.16;5036180;28;20049;-59
2022/12/11 05:23:03;;;;;;;7.53;4.87;;;;;;;-142.25;100.00;58004.16;5037352;28;20128;-58
2022/12/11 05:25:28;;;;;;;8.07;4.50;;;;;;;-142.25;100.00;58004.16;5036312;28;20041;-59
2022/12/11 05:27:54;;;;;;;7.63;4.20;;;;;;;-142.25;100.00;58004.16;5036340;28;20122;-59
2022/12/11 05:30:19;;;;;;;7.80;4.83;;;;;;;-142.25;100.00;58004.16;5035152;28;20084;-58
2022/12/11 05:32:45;;;;;;;6.83;4.33;;;;;;;-142.25;100.00;58004.16;5030242;28;20064;-58
2022/12/11 05:35:11;;;;;;;7.77;5.20;;;;;;;-142.25;100.00;58004.16;5033225;28;20029;-60
2022/12/11 05:37:37;;;;;;;10.77;5.93;;;;;;;-142.25;100.00;58004.16;5037897;28;20456;-60
2022/12/11 05:40:05;;;;;;;10.63;6.10;;;;;;;-142.25;100.00;58004.16;5036605;28;20107;-59
2022/12/11 05:42:31;;;;;;;12.47;5.30;;;;;;;-142.25;100.00;58004.16;5043959;28;20547;-58
2022/12/11 05:44:57;;;;;;;10.10;6.77;;;;;;;-142.25;100.00;58004.16;5035741;28;20585;-59
2022/12/11 05:47:23;;;;;;;11.43;6.67;;;;;;;-142.25;100.00;58004.16;5036056;28;20061;-58
2022/12/11 05:49:48;;;;;;;13.67;6.50;;;;;;;-142.25;100.00;58004.16;5033778;28;20298;-59
2022/12/11 05:52:15;;;;;;;12.20;7.23;;;;;;;-142.25;100.00;58004.16;5035868;28;20428;-58
2022/12/11 05:54:41;;;;;;;11.93;7.07;;;;;;;-142.25;100.00;58004.16;5033424;28;20063;-57
2022/12/11 05:57:07;;;;;;;13.73;7.27;;;;;;;-142.25;100.00;58004.16;5032634;28;20489;-58
2022/12/11 05:59:32;;;;;;;10.43;6.03;;;;;;;-142.25;100.00;58004.16;5030902;28;20044;-62
2022/12/11 06:01:58;;;;;;;12.47;6.40;;;;;;;-142.25;100.00;58004.16;5034548;28;20175;-59
2022/12/11 06:04:23;;;;;;;9.87;7.03;;;;;;;-142.25;100.00;58004.16;5036387;28;20042;-59
2022/12/11 06:06:49;;;;;;;112.53;63.57;;;;;;;-142.25;100.00;58004.16;5038320;28;20045;-59
2022/12/11 06:09:16;;;;;;;215.47;82.30;;;;;;;-142.25;100.00;58004.16;5035798;28;20095;-59
2022/12/11 06:11:42;;;;;;;223.50;89.73;;;;;;;-142.25;100.00;58004.16;5034892;28;20560;-60
2022/12/11 06:14:09;;;;;;;265.77;94.13;;;;;;;-142.25;100.00;58004.16;5028466;28;20041;-59
2022/12/11 06:16:35;;;;;;;12.93;7.73;;;;;;;-142.25;100.00;58004.16;5033593;28;20052;-59
2022/12/11 06:19:02;;;;;;;17.63;8.73;;;;;;;-142.25;100.00;58004.16;5037092;28;20068;-57
2022/12/11 06:21:32;;;;;;;16.40;9.33;;;;;;;-142.25;100.00;58004.16;5038664;28;20080;-59
2022/12/11 06:24:01;;;;;;;16.90;8.30;;;;;;;-142.25;100.00;58004.16;5036705;28;20056;-60
2022/12/11 06:26:28;;;;;;;13.50;6.97;;;;;;;-142.25;100.00;58004.16;5036125;28;20437;-59
2022/12/11 06:28:53;;;;;;;317.10;102.33;;;;;;;-142.25;100.00;58004.16;5034932;28;20094;-59
2022/12/11 06:31:19;;;;;;;17.20;9.17;;;;;;;-142.25;100.00;58004.16;5032977;28;20091;-59
2022/12/11 06:33:45;;;;;;;15.57;8.57;;;;;;;-142.25;100.00;58004.16;5032291;28;20045;-59
2022/12/11 06:36:14;;;;;;;17.93;9.37;;;;;;;-142.25;100.00;58004.16;5028278;28;20095;-59
2022/12/11 06:38:40;;;;;;;14.03;7.63;;;;;;;-142.25;100.00;58004.16;5030334;28;20038;-59
2022/12/11 06:41:06;;;;;;;382.43;105.97;;;;;;;-142.25;100.00;58004.16;5034189;28;20045;-59
2022/12/11 06:43:34;;;;;;;333.80;102.40;;;;;;;-142.25;100.00;58004.16;5034133;28;20045;-59
2022/12/11 06:46:14;;;;;;;24.17;18.10;;;;;;;-142.25;100.00;58004.16;5031095;28;20045;-59
2022/12/11 06:48:43;;;;;;;13.77;7.20;;;;;;;-142.25;100.00;58004.16;5039869;28;20072;-60
2022/12/11 06:51:12;;;;;;;262.50;92.77;;;;;;;-142.25;100.00;58004.16;5033712;28;20033;-60
2022/12/11 06:53:38;;;;;;;276.77;96.17;;;;;;;-142.25;100.00;58004.16;5032676;28;20393;-60
2022/12/11 06:56:07;;;;;;;366.73;105.97;;;;;;;-142.25;100.00;58004.16;5034276;28;20700;-60
2022/12/11 06:58:33;;;;;;;385.70;107.87;;;;;;;-142.25;100.00;58004.16;5032470;28;20108;-59
2022/12/11 07:00:59;;;;;;;396.77;120.60;;;;;;;-142.25;100.00;58004.16;5026766;28;20124;-65
2022/12/11 07:03:25;;;;;;;300.90;108.20;;;;;;;-142.25;100.00;58004.16;5028977;28;20063;-59
2022/12/11 07:05:50;;;;;;;14.70;9.07;;;;;;;-142.25;100.00;58004.16;5033438;28;20041;-59
2022/12/11 07:08:16;;;;;;;292.57;100.37;;;;;;;-142.25;100.00;58004.16;5032326;28;20041;-59
2022/12/11 07:10:42;;;;;;;235.83;90.23;;;;;;;-142.25;100.00;58004.16;5032705;28;20127;-59
2022/12/11 07:13:07;;;;;;;147.37;73.53;;;;;;;-142.25;100.00;58004.16;5033497;28;20489;-59
2022/12/11 07:15:33;;;;;;;176.40;89.63;;;;;;;-142.25;100.00;58004.16;5030043;28;20167;-60
2022/12/11 07:17:58;;;;;;;126.07;74.53;;;;;;;-142.25;100.00;58004.16;5022946;28;20647;-60
2022/12/11 07:20:24;;;;;;;13.77;7.53;;;;;;;-142.25;100.00;58004.16;5023418;28;20041;-57
2022/12/11 07:22:50;;;;;;;15.70;7.53;;;;;;;-142.25;100.00;58004.16;5026829;28;20036;-59
2022/12/11 07:25:15;;;;;;;16.20;7.53;;;;;;;-142.25;100.00;58004.16;5031320;28;20459;-59
2022/12/11 07:27:41;;;;;;;14.43;9.00;;;;;;;-142.25;100.00;58004.16;5031152;28;20065;-59
2022/12/11 07:30:08;;;;;;;12.20;7.03;;;;;;;-142.25;100.00;58004.16;5035872;28;20183;-59
2022/12/11 07:32:33;;;;;;;12.70;7.73;;;;;;;-142.25;100.00;58004.16;5035164;28;20042;-59
2022/12/11 07:34:59;;;;;;;12.50;7.70;;;;;;;-142.25;100.00;58004.16;5031885;28;20041;-60
2022/12/11 07:37:24;;;;;;;11.83;6.53;;;;;;;-142.25;100.00;58004.16;5035274;28;20561;-58
2022/12/11 07:39:50;;;;;;;9.63;6.00;;;;;;;-142.25;100.00;58004.16;5034170;28;20049;-60
2022/12/11 07:42:16;;;;;;;10.73;5.03;;;;;;;-142.25;100.00;58004.16;5036791;28;20492;-61
2022/12/11 07:44:41;;;;;;;9.40;5.20;;;;;;;-142.25;100.00;58004.16;5029375;28;20707;-60
2022/12/11 07:47:07;;;;;;;8.27;5.20;;;;;;;-142.25;100.00;58004.16;5032256;28;20536;-59
2022/12/11 07:49:33;;;;;;;9.30;5.70;;;;;;;-142.25;100.00;58004.16;5034864;28;20161;-60
2022/12/11 07:51:59;;;;;;;9.63;5.87;;;;;;;-142.25;100.00;58004.16;5033586;28;20407;-59
2022/12/11 07:54:25;;;;;;;10.63;5.80;;;;;;;-142.25;100.00;58004.16;5034013;28;20554;-59
2022/12/11 07:56:50;;;;;;;11.20;6.07;;;;;;;-142.25;100.00;58004.16;5029675;28;20052;-59
2022/12/11 07:59:16;;;;;;;10.57;5.77;;;;;;;-142.25;100.00;58004.16;5029062;28;20041;-64
2022/12/11 08:01:42;;;;;;;9.73;5.80;;;;;;;-142.25;100.00;58004.16;5039376;28;20539;-58
2022/12/11 08:04:10;;;;;;;10.73;6.30;;;;;;;-142.25;100.00;58004.16;5028409;28;20416;-60
2022/12/11 08:06:38;;;;;;;8.60;4.50;;;;;;;-142.25;100.00;58004.16;5034469;28;20048;-60
2022/12/11 08:09:07;;;;;;;10.47;5.43;;;;;;;-142.25;100.00;58004.16;5032154;28;20052;-63
2022/12/11 08:11:33;;;;;;;9.43;5.93;;;;;;;-142.25;100.00;58004.16;5027182;28;20087;-62
2022/12/11 08:14:01;;;;;;;9.80;4.50;;;;;;;-142.25;100.00;58004.16;5032000;28;20351;-65
2022/12/11 08:16:27;;;;;;;9.23;5.37;;;;;;;-142.25;100.00;58004.16;5035424;28;20052;-60
2022/12/11 08:18:53;;;;;;;11.70;6.20;;;;;;;-142.25;100.00;58004.16;5038452;28;20048;-61
2022/12/11 08:21:24;;;;;;;7.20;5.07;;;;;;;-142.25;100.00;58004.16;5049690;28;20086;-60
2022/12/11 08:23:52;;;;;;;7.00;4.13;;;;;;;-142.25;100.00;58004.16;5044072;28;20041;-60
2022/12/11 08:26:27;;;;;;;6.83;4.63;;;;;;;-142.25;100.00;58004.16;5030472;28;20081;-60
2022/12/11 08:28:54;;;;;;;12.50;6.57;;;;;;;-142.25;100.00;58004.16;5029454;28;20033;-61
2022/12/11 08:31:20;;;;;;;12.67;7.20;;;;;;;-142.25;100.00;58004.16;5036751;28;20132;-60
2022/12/11 08:33:47;;;;;;;9.13;6.20;;;;;;;-142.25;100.00;58004.16;5035705;28;20045;-60
2022/12/11 08:36:15;;;;;;;11.17;5.90;;;;;;;-142.25;100.00;58004.16;5035022;28;20179;-62
2022/12/11 08:38:41;;;;;;;9.67;5.77;;;;;;;-142.25;100.00;58004.16;5035342;28;20120;-62
2022/12/11 08:41:33;;;;;;;11.80;5.50;;;;;;;-142.25;100.00;58004.16;5035148;28;20578;-63
2022/12/11 08:44:00;;;;;;;10.77;6.27;;;;;;;-142.25;100.00;58004.16;5033038;28;20143;-59
2022/12/11 08:46:28;;;;;;;10.47;6.13;;;;;;;-142.25;100.00;58004.16;5031442;28;20068;-59
2022/12/11 08:48:55;;;;;;;9.83;6.27;;;;;;;-142.25;100.00;58004.16;5033563;28;20458;-61
2022/12/11 08:51:22;;;;;;;11.37;6.30;;;;;;;-142.25;100.00;58004.16;5033583;28;20041;-60
2022/12/11 08:53:50;;;;;;;10.00;6.43;;;;;;;-142.25;100.00;58004.16;5046847;28;20116;-60
2022/12/11 08:56:18;;;;;;;9.93;6.37;;;;;;;-142.25;100.00;58004.16;5026462;28;20060;-62
2022/12/11 08:58:45;;;;;;;10.07;5.23;;;;;;;-142.25;100.00;58004.16;5029082;28;20092;-59
2022/12/11 09:01:16;;;;;;;11.30;6.97;;;;;;;-142.25;100.00;58004.16;5030037;28;20037;-59
2022/12/11 09:03:42;;;;;;;16.53;9.53;;;;;;;-142.25;100.00;58004.16;5030664;28;20049;-60
2022/12/11 09:06:10;;;;;;;301.47;98.67;;;;;;;-142.25;100.00;58004.16;5033972;28;20118;-59
2022/12/11 09:08:37;;;;;;;10.37;6.03;;;;;;;-142.25;100.00;58004.16;5032780;28;20047;-58
2022/12/11 09:11:08;;;;;;;9.47;5.37;;;;;;;-142.25;100.00;58004.16;5033362;28;20045;-60
2022/12/11 09:13:34;;;;;;;10.43;5.43;;;;;;;-142.25;100.00;58004.16;5033379;28;20269;-59
2022/12/11 09:16:02;;;;;;;323.17;100.00;;;;;;;-142.25;100.00;58004.16;5032834;28;20539;-62
2022/12/11 09:18:31;;;;;;;336.40;103.43;;;;;;;-142.25;100.00;58004.16;5049091;28;20395;-61
2022/12/11 09:21:01;;;;;;;350.50;102.90;;;;;;;-142.25;100.00;58004.16;5032258;28;20303;-60
2022/12/11 09:23:27;;;;;;;361.97;103.63;;;;;;;-142.25;100.00;58004.16;5031572;28;20298;-60
2022/12/11 09:25:53;;;;;;;13.10;7.43;;;;;;;-142.25;100.00;58004.16;5027318;28;20298;-59
2022/12/11 09:28:19;;;;;;;339.57;105.20;;;;;;;-142.25;100.00;58004.16;5027378;28;20529;-61
2022/12/11 09:30:44;;;;;;;14.53;7.30;;;;;;;-142.25;100.00;58004.16;5029061;28;20276;-60
2022/12/11 09:33:10;;;;;;;12.40;8.17;;;;;;;-142.25;100.00;58004.16;5028323;28;20041;-60
2022/12/11 09:35:36;;;;;;;13.03;7.97;;;;;;;-142.25;100.00;58004.16;5024879;28;20048;-61
2022/12/11 09:38:02;;;;;;;14.90;8.67;;;;;;;-142.25;100.00;58004.16;5029776;28;20038;-61
2022/12/11 09:40:28;;;;;;;17.73;8.37;;;;;;;-142.25;100.00;58004.16;5031818;28;20295;-61
2022/12/11 09:43:08;;;;;;;13.70;9.00;;;;;;;-142.25;100.00;58004.16;5026652;28;20123;-61
2022/12/11 09:45:34;;;;;;;16.37;9.33;;;;;;;-142.25;100.00;58004.16;5030753;28;20033;-62
2022/12/11 09:48:01;;;;;;;13.93;8.40;;;;;;;-142.25;100.00;58004.16;5025718;28;20459;-60
2022/12/11 09:50:31;;;;;;;13.93;7.43;;;;;;;-142.25;100.00;58004.16;5028237;28;20037;-63
2022/12/11 09:53:09;;;;;;;14.53;7.67;;;;;;;-142.25;100.00;58004.16;5030935;28;20056;-59
2022/12/11 09:55:53;;;;;;;14.00;7.23;;;;;;;-142.25;100.00;58004.16;5035135;28;20533;-60
2022/12/11 09:58:30;;;;;;;15.50;7.00;;;;;;;-142.25;100.00;58004.16;5031865;28;20041;-61
2022/12/11 10:01:23;;;;;;;12.30;6.40;;;;;;;-142.25;100.00;58004.16;5033100;28;20052;-65
2022/12/11 10:04:10;;;;;;;12.70;6.90;;;;;;;-142.25;100.00;58004.16;5036535;28;20404;-62
2022/12/11 10:07:08;;;;;;;8.77;5.83;;;;;;;-142.25;100.00;58004.16;5037713;28;20056;-58
2022/12/11 10:09:44;;;;;;;14.53;8.60;;;;;;;-142.25;100.00;58004.16;5003844;28;20148;-59
2022/12/11 10:12:25;;;;;;;92.97;32.63;;;;;;;-142.25;100.00;58004.16;5005795;28;20128;-59
2022/12/11 10:15:09;;;;;;;325.50;101.67;;;;;;;-142.25;100.00;58004.16;5000731;28;20219;-58
2022/12/11 10:17:37;;;;;;;219.53;73.90;;;;;;;-142.25;100.00;58004.16;5004251;28;20084;-60
2022/12/11 10:20:37;;;;;;;341.07;103.67;;;;;;;-142.25;100.00;58004.16;5002536;28;20046;-58
2022/12/11 10:23:06;;;;;;;11.17;6.70;;;;;;;-142.25;100.00;58004.16;4995663;28;20061;-60
2022/12/11 10:25:39;;;;;;;14.20;7.13;;;;;;;-142.25;100.00;58004.16;5001256;28;20080;-60
2022/12/11 10:28:12;;;;;;;316.30;101.70;;;;;;;-142.25;100.00;58004.16;5002434;28;20054;-58
2022/12/11 10:30:46;;;;;;;124.67;69.00;;;;;;;-142.25;100.00;58004.16;5003124;28;20129;-60
2022/12/11 10:33:33;;;;;;;38.92;24.63;;;;;;;-142.25;100.00;58004.16;5004254;28;20084;-58
2022/12/11 10:35:59;;;;;;;338.30;112.03;;;;;;;-142.25;100.00;58004.16;4975823;28;20224;-58
2022/12/11 10:38:30;;;;;;;276.40;102.27;;;;;;;-142.25;100.00;58004.16;4998084;28;20277;-61
2022/12/11 10:41:04;;;;;;;345.50;107.87;;;;;;;-142.25;100.00;58004.16;5002876;28;20081;-58
2022/12/11 10:43:40;;;;;;;11.80;6.63;;;;;;;-142.25;100.00;58004.16;5001221;28;20081;-59
2022/12/11 10:46:15;;;;;;;11.43;5.63;;;;;;;-142.25;100.00;58004.16;5021456;28;20053;-59
2022/12/11 10:48:49;;;;;;;10.73;5.45;;;;;;;-142.25;100.00;58004.16;5037157;28;20087;-58
2022/12/11 10:51:16;;;;;;;9.45;5.32;;;;;;;-142.25;100.00;58004.16;5035741;28;20154;-60
2022/12/11 10:53:43;;;;;;;10.77;6.70;;;;;;;-142.25;100.00;58004.16;5034126;28;20416;-59
2022/12/11 10:56:10;;;;;;;8.40;5.60;;;;;;;-142.25;100.00;58004.16;5049843;28;20488;-58
2022/12/11 10:58:46;;;;;;;10.10;4.87;;;;;;;-142.25;100.00;58004.16;5028674;28;20049;-62
2022/12/11 11:01:15;;;;;;;;;;;;;;;-142.25;100.00;58004.16;5032304;28;20164;-57
2022/12/11 11:04:03;;;;;;;9.80;6.37;;;;;;;-142.25;100.00;58004.16;5032048;28;19916;-60
2022/12/11 11:06:29;;;;;;;10.33;5.07;;;;;;;-142.25;100.00;58004.16;5035572;28;20042;-60
2022/12/11 11:08:57;;;;;;;10.70;5.97;;;;;;;-142.25;100.00;58004.16;5028170;28;20084;-59
2022/12/11 11:11:28;;;;;;;9.60;5.50;;;;;;;-142.25;100.00;58004.16;5028514;28;20048;-60
2022/12/11 11:14:16;;;;;;;11.20;6.27;;;;;;;-142.25;100.00;58004.16;5033603;28;20455;-60
2022/12/11 11:16:45;;;;;;;16.27;8.87;;;;;;;-142.25;100.00;58004.16;5028435;28;20041;-58
2022/12/11 11:19:28;;;;;;;14.57;6.90;;;;;;;-142.25;100.00;58004.16;5030678;28;20041;-59